sensor_id;sensor_type;location;lat;lon;timestamp;P1;durP1;ratioP1;P2;durP2;ratioP2
16705;SDS011;8469;60.136;15.180;2023-04-24T00:01:54;0.50;;;0.50;;
16705;SDS011;8469;60.136;15.180;2023-04-24T00:04:22;0.40;;;0.40;;
16705;SDS011;8469;60.136;15.180;2023-04-24T00:06:51;0.40;;;0.40;;
16705;SDS011;8469;60.136;15.180;2023-04-24T00:09:20;0.50;;;0.50;;
16705;SDS011;8469;60.136;15.180;2023-04-24T00:11:48;0.60;;;0.60;;
16705;SDS011;8469;60.136;15.180;2023-04-24T00:14:15;1.30;;;0.60;;
16705;SDS011;8469;60.136;15.180;2023-04-24T00:16:43;0.60;;;0.60;;
16705;SDS011;8469;60.136;15.180;2023-04-24T00:19:10;0.70;;;0.60;;
16705;SDS011;8469;60.136;15.180;2023-04-24T00:21:39;2.30;;;0.70;;
16705;SDS011;8469;60.136;15.180;2023-04-24T00:24:07;0.65;;;0.65;;
16705;SDS011;8469;60.136;15.180;2023-04-24T00:26:37;1.10;;;0.70;;
16705;SDS011;8469;60.136;15.180;2023-04-24T00:29:05;0.97;;;0.70;;
16705;SDS011;8469;60.136;15.180;2023-04-24T00:31:32;0.62;;;0.62;;
16705;SDS011;8469;60.136;15.180;2023-04-24T00:34:01;0.98;;;0.70;;
16705;SDS011;8469;60.136;15.180;2023-04-24T00:36:29;0.80;;;0.80;;
16705;SDS011;8469;60.136;15.180;2023-04-24T00:38:57;0.70;;;0.70;;
16705;SDS011;8469;60.136;15.180;2023-04-24T00:41:24;1.10;;;0.57;;
16705;SDS011;8469;60.136;15.180;2023-04-24T00:43:52;0.70;;;0.70;;
16705;SDS011;8469;60.136;15.180;2023-04-24T00:46:19;0.80;;;0.80;;
16705;SDS011;8469;60.136;15.180;2023-04-24T00:48:47;0.60;;;0.60;;
16705;SDS011;8469;60.136;15.180;2023-04-24T00:51:15;1.80;;;0.80;;
16705;SDS011;8469;60.136;15.180;2023-04-24T00:53:42;0.85;;;0.85;;
16705;SDS011;8469;60.136;15.180;2023-04-24T00:56:09;1.90;;;0.80;;
16705;SDS011;8469;60.136;15.180;2023-04-24T00:58:37;0.90;;;0.65;;
16705;SDS011;8469;60.136;15.180;2023-04-24T01:01:04;1.05;;;0.70;;
16705;SDS011;8469;60.136;15.180;2023-04-24T01:03:33;0.60;;;0.60;;
16705;SDS011;8469;60.136;15.180;2023-04-24T01:06:02;0.80;;;0.80;;
16705;SDS011;8469;60.136;15.180;2023-04-24T01:08:29;0.72;;;0.72;;
16705;SDS011;8469;60.136;15.180;2023-04-24T01:10:57;0.85;;;0.70;;
16705;SDS011;8469;60.136;15.180;2023-04-24T01:13:24;0.70;;;0.70;;
16705;SDS011;8469;60.136;15.180;2023-04-24T01:15:52;0.60;;;0.60;;
16705;SDS011;8469;60.136;15.180;2023-04-24T01:18:19;0.60;;;0.60;;
16705;SDS011;8469;60.136;15.180;2023-04-24T01:20:48;1.05;;;0.80;;
16705;SDS011;8469;60.136;15.180;2023-04-24T01:23:17;0.70;;;0.70;;
16705;SDS011;8469;60.136;15.180;2023-04-24T01:25:44;1.40;;;0.72;;
16705;SDS011;8469;60.136;15.180;2023-04-24T01:28:11;1.73;;;0.80;;
16705;SDS011;8469;60.136;15.180;2023-04-24T01:30:41;0.88;;;0.75;;
16705;SDS011;8469;60.136;15.180;2023-04-24T01:33:09;0.70;;;0.70;;
16705;SDS011;8469;60.136;15.180;2023-04-24T01:35:37;1.10;;;0.90;;
16705;SDS011;8469;60.136;15.180;2023-04-24T01:38:04;0.70;;;0.70;;
16705;SDS011;8469;60.136;15.180;2023-04-24T01:40:32;0.93;;;0.93;;
16705;SDS011;8469;60.136;15.180;2023-04-24T01:42:59;0.78;;;0.78;;
16705;SDS011;8469;60.136;15.180;2023-04-24T01:45:27;0.70;;;0.70;;
16705;SDS011;8469;60.136;15.180;2023-04-24T01:47:54;0.90;;;0.90;;
16705;SDS011;8469;60.136;15.180;2023-04-24T01:50:21;0.80;;;0.80;;
16705;SDS011;8469;60.136;15.180;2023-04-24T01:52:49;0.80;;;0.80;;
16705;SDS011;8469;60.136;15.180;2023-04-24T01:55:16;0.70;;;0.70;;
16705;SDS011;8469;60.136;15.180;2023-04-24T01:57:44;0.80;;;0.70;;
16705;SDS011;8469;60.136;15.180;2023-04-24T02:00:12;0.60;;;0.60;;
16705;SDS011;8469;60.136;15.180;2023-04-24T02:02:39;1.05;;;0.80;;
16705;SDS011;8469;60.136;15.180;2023-04-24T02:05:07;0.80;;;0.80;;
16705;SDS011;8469;60.136;15.180;2023-04-24T02:07:35;0.75;;;0.70;;
16705;SDS011;8469;60.136;15.180;2023-04-24T02:10:02;0.50;;;0.50;;
16705;SDS011;8469;60.136;15.180;2023-04-24T02:12:32;0.60;;;0.60;;
16705;SDS011;8469;60.136;15.180;2023-04-24T02:14:59;0.65;;;0.65;;
16705;SDS011;8469;60.136;15.180;2023-04-24T02:17:26;0.70;;;0.70;;
16705;SDS011;8469;60.136;15.180;2023-04-24T02:19:54;0.60;;;0.60;;
16705;SDS011;8469;60.136;15.180;2023-04-24T02:22:21;1.00;;;0.70;;
16705;SDS011;8469;60.136;15.180;2023-04-24T02:24:48;0.50;;;0.50;;
16705;SDS011;8469;60.136;15.180;2023-04-24T02:27:15;0.70;;;0.70;;
16705;SDS011;8469;60.136;15.180;2023-04-24T02:29:44;0.80;;;0.80;;
16705;SDS011;8469;60.136;15.180;2023-04-24T02:32:11;0.83;;;0.83;;
16705;SDS011;8469;60.136;15.180;2023-04-24T02:34:38;0.70;;;0.70;;
16705;SDS011;8469;60.136;15.180;2023-04-24T02:37:06;0.70;;;0.70;;
16705;SDS011;8469;60.136;15.180;2023-04-24T02:39:33;0.70;;;0.70;;
16705;SDS011;8469;60.136;15.180;2023-04-24T02:42:00;0.90;;;0.90;;
16705;SDS011;8469;60.136;15.180;2023-04-24T02:44:28;0.80;;;0.80;;
16705;SDS011;8469;60.136;15.180;2023-04-24T02:46:55;0.90;;;0.90;;
16705;SDS011;8469;60.136;15.180;2023-04-24T02:49:22;1.50;;;0.80;;
16705;SDS011;8469;60.136;15.180;2023-04-24T02:51:50;0.90;;;0.90;;
16705;SDS011;8469;60.136;15.180;2023-04-24T02:54:17;0.80;;;0.80;;
16705;SDS011;8469;60.136;15.180;2023-04-24T02:56:44;0.90;;;0.90;;
16705;SDS011;8469;60.136;15.180;2023-04-24T02:59:12;1.07;;;1.07;;
16705;SDS011;8469;60.136;15.180;2023-04-24T03:01:39;0.90;;;0.90;;
16705;SDS011;8469;60.136;15.180;2023-04-24T03:04:06;1.07;;;0.80;;
16705;SDS011;8469;60.136;15.180;2023-04-24T03:06:34;0.80;;;0.80;;
16705;SDS011;8469;60.136;15.180;2023-04-24T03:09:01;2.10;;;0.95;;
16705;SDS011;8469;60.136;15.180;2023-04-24T03:11:29;0.93;;;0.93;;
16705;SDS011;8469;60.136;15.180;2023-04-24T03:13:57;1.00;;;1.00;;
16705;SDS011;8469;60.136;15.180;2023-04-24T03:16:24;1.30;;;0.95;;
16705;SDS011;8469;60.136;15.180;2023-04-24T03:18:52;0.90;;;0.90;;
16705;SDS011;8469;60.136;15.180;2023-04-24T03:21:19;1.02;;;1.00;;
16705;SDS011;8469;60.136;15.180;2023-04-24T03:23:46;1.25;;;1.00;;
16705;SDS011;8469;60.136;15.180;2023-04-24T03:26:14;0.90;;;0.90;;
16705;SDS011;8469;60.136;15.180;2023-04-24T03:28:41;0.72;;;0.72;;
16705;SDS011;8469;60.136;15.180;2023-04-24T03:31:08;0.95;;;0.93;;
16705;SDS011;8469;60.136;15.180;2023-04-24T03:33:36;0.85;;;0.82;;
16705;SDS011;8469;60.136;15.180;2023-04-24T03:36:04;0.88;;;0.88;;
16705;SDS011;8469;60.136;15.180;2023-04-24T03:38:31;1.02;;;1.02;;
16705;SDS011;8469;60.136;15.180;2023-04-24T03:40:58;0.93;;;0.90;;
16705;SDS011;8469;60.136;15.180;2023-04-24T03:43:26;0.90;;;0.90;;
16705;SDS011;8469;60.136;15.180;2023-04-24T03:45:53;0.80;;;0.80;;
16705;SDS011;8469;60.136;15.180;2023-04-24T03:48:20;1.15;;;0.90;;
16705;SDS011;8469;60.136;15.180;2023-04-24T03:50:48;1.75;;;0.90;;
16705;SDS011;8469;60.136;15.180;2023-04-24T03:53:15;0.82;;;0.82;;
16705;SDS011;8469;60.136;15.180;2023-04-24T03:55:42;0.90;;;0.80;;
16705;SDS011;8469;60.136;15.180;2023-04-24T03:58:10;0.70;;;0.70;;
16705;SDS011;8469;60.136;15.180;2023-04-24T04:00:37;1.22;;;0.85;;
16705;SDS011;8469;60.136;15.180;2023-04-24T04:03:06;0.90;;;0.90;;
16705;SDS011;8469;60.136;15.180;2023-04-24T04:05:34;1.40;;;1.00;;
16705;SDS011;8469;60.136;15.180;2023-04-24T04:08:01;0.95;;;0.95;;
16705;SDS011;8469;60.136;15.180;2023-04-24T04:10:28;1.77;;;1.20;;
16705;SDS011;8469;60.136;15.180;2023-04-24T04:12:56;0.90;;;0.90;;
16705;SDS011;8469;60.136;15.180;2023-04-24T04:15:23;0.90;;;0.90;;
16705;SDS011;8469;60.136;15.180;2023-04-24T04:17:50;1.30;;;1.20;;
16705;SDS011;8469;60.136;15.180;2023-04-24T04:20:18;1.20;;;1.02;;
16705;SDS011;8469;60.136;15.180;2023-04-24T04:22:45;0.90;;;0.90;;
16705;SDS011;8469;60.136;15.180;2023-04-24T04:25:13;1.20;;;1.10;;
16705;SDS011;8469;60.136;15.180;2023-04-24T04:27:40;1.40;;;1.30;;
16705;SDS011;8469;60.136;15.180;2023-04-24T04:30:07;1.17;;;1.17;;
16705;SDS011;8469;60.136;15.180;2023-04-24T04:32:35;1.20;;;1.10;;
16705;SDS011;8469;60.136;15.180;2023-04-24T04:35:03;0.98;;;0.98;;
16705;SDS011;8469;60.136;15.180;2023-04-24T04:37:33;0.98;;;0.90;;
16705;SDS011;8469;60.136;15.180;2023-04-24T04:40:01;1.10;;;1.10;;
16705;SDS011;8469;60.136;15.180;2023-04-24T04:42:30;0.90;;;0.90;;
16705;SDS011;8469;60.136;15.180;2023-04-24T04:44:58;1.00;;;1.00;;
16705;SDS011;8469;60.136;15.180;2023-04-24T04:47:26;2.47;;;0.90;;
16705;SDS011;8469;60.136;15.180;2023-04-24T04:49:54;1.00;;;1.00;;
16705;SDS011;8469;60.136;15.180;2023-04-24T04:52:22;0.90;;;0.90;;
16705;SDS011;8469;60.136;15.180;2023-04-24T04:54:51;2.00;;;0.80;;
16705;SDS011;8469;60.136;15.180;2023-04-24T04:57:18;4.50;;;1.40;;
16705;SDS011;8469;60.136;15.180;2023-04-24T04:59:46;0.80;;;0.80;;
16705;SDS011;8469;60.136;15.180;2023-04-24T05:02:14;0.85;;;0.85;;
16705;SDS011;8469;60.136;15.180;2023-04-24T05:04:41;0.80;;;0.80;;
16705;SDS011;8469;60.136;15.180;2023-04-24T05:07:08;0.90;;;0.90;;
16705;SDS011;8469;60.136;15.180;2023-04-24T05:09:36;1.00;;;0.90;;
16705;SDS011;8469;60.136;15.180;2023-04-24T05:12:03;3.10;;;1.00;;
16705;SDS011;8469;60.136;15.180;2023-04-24T05:14:30;0.93;;;0.93;;
16705;SDS011;8469;60.136;15.180;2023-04-24T05:16:58;0.93;;;0.93;;
16705;SDS011;8469;60.136;15.180;2023-04-24T05:19:26;1.20;;;1.10;;
16705;SDS011;8469;60.136;15.180;2023-04-24T05:21:53;1.20;;;1.02;;
16705;SDS011;8469;60.136;15.180;2023-04-24T05:24:20;0.80;;;0.80;;
16705;SDS011;8469;60.136;15.180;2023-04-24T05:26:48;1.70;;;0.97;;
16705;SDS011;8469;60.136;15.180;2023-04-24T05:29:16;1.27;;;1.10;;
16705;SDS011;8469;60.136;15.180;2023-04-24T05:31:45;0.90;;;0.90;;
16705;SDS011;8469;60.136;15.180;2023-04-24T05:34:12;1.00;;;1.00;;
16705;SDS011;8469;60.136;15.180;2023-04-24T05:36:41;1.50;;;1.40;;
16705;SDS011;8469;60.136;15.180;2023-04-24T05:39:09;3.80;;;1.00;;
16705;SDS011;8469;60.136;15.180;2023-04-24T05:41:36;1.25;;;1.10;;
16705;SDS011;8469;60.136;15.180;2023-04-24T05:44:03;2.90;;;1.30;;
16705;SDS011;8469;60.136;15.180;2023-04-24T05:46:31;1.10;;;1.10;;
16705;SDS011;8469;60.136;15.180;2023-04-24T05:48:58;1.80;;;1.10;;
16705;SDS011;8469;60.136;15.180;2023-04-24T05:51:26;1.30;;;1.20;;
16705;SDS011;8469;60.136;15.180;2023-04-24T05:53:53;1.22;;;1.22;;
16705;SDS011;8469;60.136;15.180;2023-04-24T05:56:21;1.20;;;1.20;;
16705;SDS011;8469;60.136;15.180;2023-04-24T05:58:48;1.50;;;1.40;;
16705;SDS011;8469;60.136;15.180;2023-04-24T06:01:15;1.60;;;1.50;;
16705;SDS011;8469;60.136;15.180;2023-04-24T06:03:43;1.30;;;1.30;;
16705;SDS011;8469;60.136;15.180;2023-04-24T06:06:10;1.15;;;1.15;;
16705;SDS011;8469;60.136;15.180;2023-04-24T06:08:38;1.32;;;1.22;;
16705;SDS011;8469;60.136;15.180;2023-04-24T06:11:05;1.30;;;1.30;;
16705;SDS011;8469;60.136;15.180;2023-04-24T06:13:33;1.60;;;1.47;;
16705;SDS011;8469;60.136;15.180;2023-04-24T06:16:00;1.10;;;1.10;;
16705;SDS011;8469;60.136;15.180;2023-04-24T06:18:27;1.20;;;1.00;;
16705;SDS011;8469;60.136;15.180;2023-04-24T06:20:55;1.40;;;1.30;;
16705;SDS011;8469;60.136;15.180;2023-04-24T06:23:22;1.40;;;1.30;;
16705;SDS011;8469;60.136;15.180;2023-04-24T06:25:49;2.73;;;1.30;;
16705;SDS011;8469;60.136;15.180;2023-04-24T06:28:17;4.22;;;1.60;;
16705;SDS011;8469;60.136;15.180;2023-04-24T06:30:44;1.27;;;1.17;;
16705;SDS011;8469;60.136;15.180;2023-04-24T06:33:12;1.07;;;1.07;;
16705;SDS011;8469;60.136;15.180;2023-04-24T06:35:39;3.05;;;1.20;;
16705;SDS011;8469;60.136;15.180;2023-04-24T06:38:07;1.10;;;1.10;;
16705;SDS011;8469;60.136;15.180;2023-04-24T06:40:34;1.80;;;1.00;;
16705;SDS011;8469;60.136;15.180;2023-04-24T06:43:01;4.00;;;1.30;;
16705;SDS011;8469;60.136;15.180;2023-04-24T06:45:30;3.25;;;1.22;;
16705;SDS011;8469;60.136;15.180;2023-04-24T06:47:57;3.72;;;1.20;;
16705;SDS011;8469;60.136;15.180;2023-04-24T06:50:25;1.10;;;1.10;;
16705;SDS011;8469;60.136;15.180;2023-04-24T06:52:52;1.50;;;1.40;;
16705;SDS011;8469;60.136;15.180;2023-04-24T06:55:19;2.10;;;1.25;;
16705;SDS011;8469;60.136;15.180;2023-04-24T06:57:47;1.40;;;1.25;;
16705;SDS011;8469;60.136;15.180;2023-04-24T07:00:14;1.20;;;1.20;;
16705;SDS011;8469;60.136;15.180;2023-04-24T07:02:42;3.75;;;1.27;;
16705;SDS011;8469;60.136;15.180;2023-04-24T07:05:09;1.20;;;1.20;;
16705;SDS011;8469;60.136;15.180;2023-04-24T07:07:37;1.12;;;1.12;;
16705;SDS011;8469;60.136;15.180;2023-04-24T07:10:06;1.90;;;1.30;;
16705;SDS011;8469;60.136;15.180;2023-04-24T07:12:34;1.37;;;1.27;;
16705;SDS011;8469;60.136;15.180;2023-04-24T07:15:02;1.70;;;1.37;;
16705;SDS011;8469;60.136;15.180;2023-04-24T07:17:29;2.25;;;1.22;;
16705;SDS011;8469;60.136;15.180;2023-04-24T07:19:57;1.90;;;1.23;;
16705;SDS011;8469;60.136;15.180;2023-04-24T07:22:24;2.15;;;1.30;;
16705;SDS011;8469;60.136;15.180;2023-04-24T07:24:51;1.20;;;1.20;;
16705;SDS011;8469;60.136;15.180;2023-04-24T07:27:19;1.60;;;1.50;;
16705;SDS011;8469;60.136;15.180;2023-04-24T07:29:46;1.15;;;1.10;;
16705;SDS011;8469;60.136;15.180;2023-04-24T07:32:14;1.98;;;1.25;;
16705;SDS011;8469;60.136;15.180;2023-04-24T07:34:41;1.90;;;1.10;;
16705;SDS011;8469;60.136;15.180;2023-04-24T07:37:09;1.30;;;1.20;;
16705;SDS011;8469;60.136;15.180;2023-04-24T07:39:36;1.10;;;1.02;;
16705;SDS011;8469;60.136;15.180;2023-04-24T07:42:03;1.10;;;1.10;;
16705;SDS011;8469;60.136;15.180;2023-04-24T07:44:31;1.32;;;1.10;;
16705;SDS011;8469;60.136;15.180;2023-04-24T07:46:58;0.90;;;0.90;;
16705;SDS011;8469;60.136;15.180;2023-04-24T07:49:26;1.10;;;1.10;;
16705;SDS011;8469;60.136;15.180;2023-04-24T07:51:54;0.98;;;0.98;;
16705;SDS011;8469;60.136;15.180;2023-04-24T07:54:21;1.10;;;1.10;;
16705;SDS011;8469;60.136;15.180;2023-04-24T07:56:49;5.37;;;1.15;;
16705;SDS011;8469;60.136;15.180;2023-04-24T07:59:16;3.00;;;1.10;;
16705;SDS011;8469;60.136;15.180;2023-04-24T08:01:43;1.60;;;1.00;;
16705;SDS011;8469;60.136;15.180;2023-04-24T08:04:11;0.90;;;0.90;;
16705;SDS011;8469;60.136;15.180;2023-04-24T08:06:39;4.67;;;1.17;;
16705;SDS011;8469;60.136;15.180;2023-04-24T08:09:06;1.10;;;1.10;;
16705;SDS011;8469;60.136;15.180;2023-04-24T08:11:34;1.10;;;1.10;;
16705;SDS011;8469;60.136;15.180;2023-04-24T08:14:01;1.25;;;1.10;;
16705;SDS011;8469;60.136;15.180;2023-04-24T08:16:28;1.10;;;1.10;;
16705;SDS011;8469;60.136;15.180;2023-04-24T08:18:56;1.10;;;1.00;;
16705;SDS011;8469;60.136;15.180;2023-04-24T08:21:23;0.80;;;0.80;;
16705;SDS011;8469;60.136;15.180;2023-04-24T08:23:53;1.90;;;1.00;;
16705;SDS011;8469;60.136;15.180;2023-04-24T08:26:20;1.10;;;1.00;;
16705;SDS011;8469;60.136;15.180;2023-04-24T08:28:47;2.05;;;1.10;;
16705;SDS011;8469;60.136;15.180;2023-04-24T08:31:15;1.00;;;1.00;;
16705;SDS011;8469;60.136;15.180;2023-04-24T08:33:42;3.45;;;1.20;;
16705;SDS011;8469;60.136;15.180;2023-04-24T08:36:11;1.10;;;1.10;;
16705;SDS011;8469;60.136;15.180;2023-04-24T08:38:39;1.10;;;1.10;;
16705;SDS011;8469;60.136;15.180;2023-04-24T08:41:07;4.92;;;1.20;;
16705;SDS011;8469;60.136;15.180;2023-04-24T08:43:34;1.35;;;1.25;;
16705;SDS011;8469;60.136;15.180;2023-04-24T08:46:03;3.00;;;1.10;;
16705;SDS011;8469;60.136;15.180;2023-04-24T08:48:31;1.35;;;1.02;;
16705;SDS011;8469;60.136;15.180;2023-04-24T08:50:59;1.22;;;1.15;;
16705;SDS011;8469;60.136;15.180;2023-04-24T08:53:27;2.15;;;1.05;;
16705;SDS011;8469;60.136;15.180;2023-04-24T08:55:55;1.35;;;1.25;;
16705;SDS011;8469;60.136;15.180;2023-04-24T08:58:24;1.20;;;1.20;;
16705;SDS011;8469;60.136;15.180;2023-04-24T09:00:54;2.83;;;1.10;;
16705;SDS011;8469;60.136;15.180;2023-04-24T09:03:21;1.25;;;1.15;;
16705;SDS011;8469;60.136;15.180;2023-04-24T09:05:49;1.70;;;1.30;;
16705;SDS011;8469;60.136;15.180;2023-04-24T09:08:17;2.10;;;1.30;;
16705;SDS011;8469;60.136;15.180;2023-04-24T09:10:44;1.52;;;1.20;;
16705;SDS011;8469;60.136;15.180;2023-04-24T09:13:13;1.92;;;1.20;;
16705;SDS011;8469;60.136;15.180;2023-04-24T09:15:42;1.45;;;1.27;;
16705;SDS011;8469;60.136;15.180;2023-04-24T09:18:09;1.47;;;1.37;;
16705;SDS011;8469;60.136;15.180;2023-04-24T09:23:22;4.65;;;1.22;;
16705;SDS011;8469;60.136;15.180;2023-04-24T09:25:50;2.70;;;1.37;;
16705;SDS011;8469;60.136;15.180;2023-04-24T09:28:19;1.20;;;1.10;;
16705;SDS011;8469;60.136;15.180;2023-04-24T09:30:46;8.17;;;1.50;;
16705;SDS011;8469;60.136;15.180;2023-04-24T09:33:14;1.40;;;1.30;;
16705;SDS011;8469;60.136;15.180;2023-04-24T09:35:52;1.32;;;1.20;;
16705;SDS011;8469;60.136;15.180;2023-04-24T09:38:11;3.33;;;1.30;;
16705;SDS011;8469;60.136;15.180;2023-04-24T09:40:38;1.03;;;1.03;;
16705;SDS011;8469;60.136;15.180;2023-04-24T09:43:10;1.00;;;1.00;;
16705;SDS011;8469;60.136;15.180;2023-04-24T09:45:37;0.95;;;0.95;;
16705;SDS011;8469;60.136;15.180;2023-04-24T09:48:04;1.20;;;1.10;;
16705;SDS011;8469;60.136;15.180;2023-04-24T09:50:32;1.35;;;1.25;;
16705;SDS011;8469;60.136;15.180;2023-04-24T09:53:04;2.37;;;1.20;;
16705;SDS011;8469;60.136;15.180;2023-04-24T09:55:35;1.00;;;1.00;;
16705;SDS011;8469;60.136;15.180;2023-04-24T09:58:04;1.17;;;1.12;;
16705;SDS011;8469;60.136;15.180;2023-04-24T10:00:32;1.20;;;1.20;;
16705;SDS011;8469;60.136;15.180;2023-04-24T10:03:00;1.47;;;0.90;;
16705;SDS011;8469;60.136;15.180;2023-04-24T10:05:36;1.25;;;1.10;;
16705;SDS011;8469;60.136;15.180;2023-04-24T10:08:05;3.35;;;1.27;;
16705;SDS011;8469;60.136;15.180;2023-04-24T10:10:29;1.40;;;1.30;;
16705;SDS011;8469;60.136;15.180;2023-04-24T10:12:57;2.95;;;1.12;;
16705;SDS011;8469;60.136;15.180;2023-04-24T10:15:26;1.05;;;1.05;;
16705;SDS011;8469;60.136;15.180;2023-04-24T10:17:53;1.60;;;0.90;;
16705;SDS011;8469;60.136;15.180;2023-04-24T10:20:24;1.30;;;1.10;;
16705;SDS011;8469;60.136;15.180;2023-04-24T10:22:52;0.88;;;0.88;;
16705;SDS011;8469;60.136;15.180;2023-04-24T10:25:21;1.12;;;1.02;;
16705;SDS011;8469;60.136;15.180;2023-04-24T10:27:49;0.90;;;0.90;;
16705;SDS011;8469;60.136;15.180;2023-04-24T10:30:17;1.00;;;1.00;;
16705;SDS011;8469;60.136;15.180;2023-04-24T10:32:45;1.47;;;1.10;;
16705;SDS011;8469;60.136;15.180;2023-04-24T10:35:13;0.98;;;0.98;;
16705;SDS011;8469;60.136;15.180;2023-04-24T10:37:46;0.95;;;0.95;;
16705;SDS011;8469;60.136;15.180;2023-04-24T10:40:16;1.30;;;1.12;;
16705;SDS011;8469;60.136;15.180;2023-04-24T10:42:41;0.90;;;0.90;;
16705;SDS011;8469;60.136;15.180;2023-04-24T10:45:19;1.65;;;1.15;;
16705;SDS011;8469;60.136;15.180;2023-04-24T10:48:06;1.15;;;1.00;;
16705;SDS011;8469;60.136;15.180;2023-04-24T10:50:13;0.90;;;0.90;;
16705;SDS011;8469;60.136;15.180;2023-04-24T10:52:46;1.55;;;1.15;;
16705;SDS011;8469;60.136;15.180;2023-04-24T10:55:14;1.30;;;1.00;;
16705;SDS011;8469;60.136;15.180;2023-04-24T10:58:01;4.90;;;1.02;;
16705;SDS011;8469;60.136;15.180;2023-04-24T11:00:29;1.15;;;1.05;;
16705;SDS011;8469;60.136;15.180;2023-04-24T11:02:56;2.20;;;1.40;;
16705;SDS011;8469;60.136;15.180;2023-04-24T11:05:48;3.77;;;1.67;;
16705;SDS011;8469;60.136;15.180;2023-04-24T11:10:39;1.50;;;1.40;;
16705;SDS011;8469;60.136;15.180;2023-04-24T11:13:06;1.50;;;1.40;;
16705;SDS011;8469;60.136;15.180;2023-04-24T11:15:34;3.20;;;1.50;;
16705;SDS011;8469;60.136;15.180;2023-04-24T11:18:01;1.47;;;1.37;;
16705;SDS011;8469;60.136;15.180;2023-04-24T11:20:29;1.47;;;1.37;;
16705;SDS011;8469;60.136;15.180;2023-04-24T11:22:58;2.60;;;1.47;;
16705;SDS011;8469;60.136;15.180;2023-04-24T11:25:28;1.40;;;1.30;;
16705;SDS011;8469;60.136;15.180;2023-04-24T11:28:02;2.67;;;1.52;;
16705;SDS011;8469;60.136;15.180;2023-04-24T11:30:23;1.57;;;1.47;;
16705;SDS011;8469;60.136;15.180;2023-04-24T11:32:52;1.30;;;1.30;;
16705;SDS011;8469;60.136;15.180;2023-04-24T11:35:22;1.90;;;1.40;;
16705;SDS011;8469;60.136;15.180;2023-04-24T11:37:54;2.05;;;1.40;;
16705;SDS011;8469;60.136;15.180;2023-04-24T11:40:22;1.75;;;1.42;;
16705;SDS011;8469;60.136;15.180;2023-04-24T11:42:50;1.55;;;1.45;;
16705;SDS011;8469;60.136;15.180;2023-04-24T11:45:22;2.30;;;1.60;;
16705;SDS011;8469;60.136;15.180;2023-04-24T11:47:47;1.50;;;1.40;;
16705;SDS011;8469;60.136;15.180;2023-04-24T11:50:15;2.02;;;1.50;;
16705;SDS011;8469;60.136;15.180;2023-04-24T11:52:43;1.40;;;1.30;;
16705;SDS011;8469;60.136;15.180;2023-04-24T11:57:43;2.35;;;1.30;;
16705;SDS011;8469;60.136;15.180;2023-04-24T12:00:17;1.40;;;1.30;;
16705;SDS011;8469;60.136;15.180;2023-04-24T12:02:47;2.62;;;1.35;;
16705;SDS011;8469;60.136;15.180;2023-04-24T12:05:20;1.60;;;1.50;;
16705;SDS011;8469;60.136;15.180;2023-04-24T12:07:48;1.20;;;1.20;;
16705;SDS011;8469;60.136;15.180;2023-04-24T12:10:22;1.50;;;1.40;;
16705;SDS011;8469;60.136;15.180;2023-04-24T12:12:50;1.47;;;1.40;;
16705;SDS011;8469;60.136;15.180;2023-04-24T12:15:18;1.57;;;1.47;;
16705;SDS011;8469;60.136;15.180;2023-04-24T12:17:46;1.70;;;1.40;;
16705;SDS011;8469;60.136;15.180;2023-04-24T12:20:14;1.72;;;1.50;;
16705;SDS011;8469;60.136;15.180;2023-04-24T12:25:14;1.27;;;1.22;;
16705;SDS011;8469;60.136;15.180;2023-04-24T12:27:42;1.60;;;1.50;;
16705;SDS011;8469;60.136;15.180;2023-04-24T12:30:10;1.40;;;1.30;;
16705;SDS011;8469;60.136;15.180;2023-04-24T12:32:42;1.40;;;1.30;;
16705;SDS011;8469;60.136;15.180;2023-04-24T12:35:09;2.25;;;1.40;;
16705;SDS011;8469;60.136;15.180;2023-04-24T12:37:37;1.67;;;1.40;;
16705;SDS011;8469;60.136;15.180;2023-04-24T12:40:06;2.58;;;1.40;;
16705;SDS011;8469;60.136;15.180;2023-04-24T12:42:34;1.32;;;1.32;;
16705;SDS011;8469;60.136;15.180;2023-04-24T12:45:03;2.22;;;1.20;;
16705;SDS011;8469;60.136;15.180;2023-04-24T12:47:31;1.37;;;1.30;;
16705;SDS011;8469;60.136;15.180;2023-04-24T12:49:59;4.05;;;1.47;;
16705;SDS011;8469;60.136;15.180;2023-04-24T12:52:27;1.73;;;1.47;;
16705;SDS011;8469;60.136;15.180;2023-04-24T12:54:58;1.30;;;1.20;;
16705;SDS011;8469;60.136;15.180;2023-04-24T12:57:26;1.50;;;1.40;;
16705;SDS011;8469;60.136;15.180;2023-04-24T12:59:54;1.60;;;1.30;;
16705;SDS011;8469;60.136;15.180;2023-04-24T13:02:28;1.22;;;1.22;;
16705;SDS011;8469;60.136;15.180;2023-04-24T13:04:52;1.40;;;1.30;;
16705;SDS011;8469;60.136;15.180;2023-04-24T13:07:20;2.47;;;1.40;;
16705;SDS011;8469;60.136;15.180;2023-04-24T13:09:48;1.40;;;1.30;;
16705;SDS011;8469;60.136;15.180;2023-04-24T13:12:15;1.50;;;1.40;;
16705;SDS011;8469;60.136;15.180;2023-04-24T13:14:43;1.47;;;1.37;;
16705;SDS011;8469;60.136;15.180;2023-04-24T13:17:11;1.60;;;1.30;;
16705;SDS011;8469;60.136;15.180;2023-04-24T13:19:40;1.40;;;1.30;;
16705;SDS011;8469;60.136;15.180;2023-04-24T13:22:08;1.30;;;1.20;;
16705;SDS011;8469;60.136;15.180;2023-04-24T13:24:36;1.57;;;1.47;;
16705;SDS011;8469;60.136;15.180;2023-04-24T13:27:04;1.60;;;1.50;;
16705;SDS011;8469;60.136;15.180;2023-04-24T13:29:31;2.27;;;1.62;;
16705;SDS011;8469;60.136;15.180;2023-04-24T13:31:58;1.75;;;1.65;;
16705;SDS011;8469;60.136;15.180;2023-04-24T13:34:26;1.77;;;1.67;;
16705;SDS011;8469;60.136;15.180;2023-04-24T13:36:55;5.80;;;1.67;;
16705;SDS011;8469;60.136;15.180;2023-04-24T13:39:23;1.50;;;1.40;;
16705;SDS011;8469;60.136;15.180;2023-04-24T13:41:51;3.92;;;1.70;;
16705;SDS011;8469;60.136;15.180;2023-04-24T13:44:19;2.83;;;1.77;;
16705;SDS011;8469;60.136;15.180;2023-04-24T13:46:47;1.72;;;1.62;;
16705;SDS011;8469;60.136;15.180;2023-04-24T13:49:15;1.90;;;1.73;;
16705;SDS011;8469;60.136;15.180;2023-04-24T13:51:43;3.83;;;1.87;;
16705;SDS011;8469;60.136;15.180;2023-04-24T13:54:11;3.17;;;1.90;;
16705;SDS011;8469;60.136;15.180;2023-04-24T13:56:42;2.12;;;1.98;;
16705;SDS011;8469;60.136;15.180;2023-04-24T13:59:09;5.00;;;2.43;;
16705;SDS011;8469;60.136;15.180;2023-04-24T14:01:36;5.30;;;2.20;;
16705;SDS011;8469;60.136;15.180;2023-04-24T14:04:04;3.62;;;2.33;;
16705;SDS011;8469;60.136;15.180;2023-04-24T14:06:31;2.65;;;2.45;;
16705;SDS011;8469;60.136;15.180;2023-04-24T14:08:58;5.05;;;2.75;;
16705;SDS011;8469;60.136;15.180;2023-04-24T14:11:26;2.98;;;2.60;;
16705;SDS011;8469;60.136;15.180;2023-04-24T14:13:58;4.78;;;2.90;;
16705;SDS011;8469;60.136;15.180;2023-04-24T14:16:25;3.02;;;2.72;;
16705;SDS011;8469;60.136;15.180;2023-04-24T14:18:57;5.72;;;3.10;;
16705;SDS011;8469;60.136;15.180;2023-04-24T14:21:24;7.40;;;3.17;;
16705;SDS011;8469;60.136;15.180;2023-04-24T14:23:51;2.87;;;2.63;;
16705;SDS011;8469;60.136;15.180;2023-04-24T14:26:19;5.55;;;2.85;;
16705;SDS011;8469;60.136;15.180;2023-04-24T14:28:48;3.72;;;2.80;;
16705;SDS011;8469;60.136;15.180;2023-04-24T14:31:16;2.62;;;2.30;;
16705;SDS011;8469;60.136;15.180;2023-04-24T14:33:43;3.83;;;2.45;;
16705;SDS011;8469;60.136;15.180;2023-04-24T14:36:14;3.87;;;2.70;;
16705;SDS011;8469;60.136;15.180;2023-04-24T14:38:40;2.87;;;2.40;;
16705;SDS011;8469;60.136;15.180;2023-04-24T14:41:08;4.90;;;2.42;;
16705;SDS011;8469;60.136;15.180;2023-04-24T14:43:35;3.17;;;2.45;;
16705;SDS011;8469;60.136;15.180;2023-04-24T14:46:04;4.47;;;2.27;;
16705;SDS011;8469;60.136;15.180;2023-04-24T14:48:31;3.00;;;2.40;;
16705;SDS011;8469;60.136;15.180;2023-04-24T14:50:59;2.17;;;2.07;;
16705;SDS011;8469;60.136;15.180;2023-04-24T14:53:26;3.40;;;2.37;;
16705;SDS011;8469;60.136;15.180;2023-04-24T14:55:54;2.60;;;2.12;;
16705;SDS011;8469;60.136;15.180;2023-04-24T14:58:21;2.40;;;1.90;;
16705;SDS011;8469;60.136;15.180;2023-04-24T15:00:48;3.12;;;2.58;;
16705;SDS011;8469;60.136;15.180;2023-04-24T15:03:20;4.92;;;2.67;;